createdAt,value
2023-11-24T00:00:37.287Z,68.42
2023-11-24T00:03:04.089Z,68.34
2023-11-24T00:05:31.198Z,68.17
2023-11-24T00:07:57.829Z,67.76
2023-11-24T00:10:29.899Z,67.93
2023-11-24T00:12:59.262Z,68.19
2023-11-24T00:15:25.962Z,67.78
2023-11-24T00:17:54.888Z,67.67
2023-11-24T00:20:26.975Z,67.60
2023-11-24T00:22:53.764Z,67.52
2023-11-24T00:25:24.061Z,67.85
2023-11-24T00:27:55.955Z,67.74
2023-11-24T00:30:23.507Z,67.58
2023-11-24T00:32:55.782Z,67.21
2023-11-24T00:35:22.504Z,67.31
2023-11-24T00:37:53.717Z,66.82
2023-11-24T00:40:22.842Z,67.17
2023-11-24T00:42:50.589Z,67.01
2023-11-24T00:45:18.066Z,66.57
2023-11-24T00:47:48.007Z,66.51
2023-11-24T00:50:14.703Z,66.41
2023-11-24T00:52:41.367Z,66.71
2023-11-24T00:55:08.673Z,67.48
2023-11-24T00:57:35.393Z,67.98
2023-11-24T01:00:04.666Z,68.04
2023-11-24T01:02:31.350Z,69.06
2023-11-24T01:04:58.685Z,68.93
2023-11-24T01:07:27.631Z,69.40
2023-11-24T01:09:57.074Z,69.64
2023-11-24T01:12:24.540Z,69.37
2023-11-24T01:14:51.226Z,69.66
2023-11-24T01:17:22.126Z,70.04
2023-11-24T01:19:49.371Z,69.91
2023-11-24T01:22:16.324Z,70.14
2023-11-24T01:24:45.508Z,70.43
2023-11-24T01:27:12.981Z,70.41
2023-11-24T01:29:39.763Z,70.83
2023-11-24T01:32:08.836Z,70.70
2023-11-24T01:34:35.554Z,70.66
2023-11-24T01:37:02.389Z,70.95
2023-11-24T01:39:29.153Z,71.30
2023-11-24T01:41:56.260Z,71.24
2023-11-24T01:44:23.801Z,71.35
2023-11-24T01:46:53.508Z,71.39
2023-11-24T01:49:20.504Z,71.74
2023-11-24T01:51:47.421Z,71.44
2023-11-24T01:54:14.169Z,71.81
2023-11-24T01:56:42.247Z,71.56
2023-11-24T01:59:11.390Z,71.66
2023-11-24T02:01:38.164Z,71.85
2023-11-24T02:04:05.065Z,71.55
2023-11-24T02:06:31.944Z,71.48
2023-11-24T02:08:58.841Z,71.70
2023-11-24T02:11:25.566Z,71.97
2023-11-24T02:13:52.883Z,71.65
2023-11-24T02:16:19.888Z,72.19
2023-11-24T02:18:49.090Z,72.14
2023-11-24T02:21:15.734Z,71.88
2023-11-24T02:23:45.411Z,72.21
2023-11-24T02:26:15.544Z,71.93
2023-11-24T02:28:42.405Z,72.24
2023-11-24T02:31:09.431Z,72.14
2023-11-24T02:33:36.187Z,72.16
2023-11-24T02:36:07.127Z,72.43
2023-11-24T02:38:33.773Z,72.53
2023-11-24T02:41:01.339Z,72.27
2023-11-24T02:43:28.880Z,72.46
2023-11-24T02:45:55.510Z,72.16
2023-11-24T02:48:22.357Z,72.52
2023-11-24T02:50:49.639Z,72.29
2023-11-24T02:53:16.290Z,72.52
2023-11-24T02:55:45.187Z,72.50
2023-11-24T02:58:14.908Z,72.63
2023-11-24T03:00:41.567Z,72.45
2023-11-24T03:03:10.633Z,72.37
2023-11-24T03:05:37.210Z,72.71
2023-11-24T03:08:04.471Z,72.57
2023-11-24T03:10:34.198Z,72.77
2023-11-24T03:13:00.847Z,72.38
2023-11-24T03:15:27.590Z,72.32
2023-11-24T03:17:54.269Z,72.38
2023-11-24T03:20:22.693Z,72.43
2023-11-24T03:22:49.454Z,72.49
2023-11-24T03:25:16.531Z,72.56
2023-11-24T03:27:43.209Z,72.59
2023-11-24T03:30:10.507Z,72.58
2023-11-24T03:32:39.769Z,72.56
2023-11-24T03:35:07.504Z,72.42
2023-11-24T03:37:34.184Z,72.41
2023-11-24T03:40:01.168Z,72.67
2023-11-24T03:42:30.073Z,72.11
2023-11-24T03:44:56.746Z,72.69
2023-11-24T03:47:25.570Z,72.38
2023-11-24T03:49:52.209Z,72.48
2023-11-24T03:52:21.874Z,72.31
2023-11-24T03:54:51.911Z,72.48
2023-11-24T03:57:21.045Z,72.24
2023-11-24T03:59:47.817Z,72.35
2023-11-24T04:02:14.718Z,72.55
2023-11-24T04:04:41.511Z,72.51
2023-11-24T04:07:08.172Z,72.45
2023-11-24T04:09:39.433Z,72.21
2023-11-24T04:12:06.386Z,72.53
2023-11-24T04:14:33.064Z,72.48
2023-11-24T04:17:01.544Z,72.23
2023-11-24T04:19:28.453Z,72.49
2023-11-24T04:21:56.440Z,72.35
2023-11-24T04:24:24.750Z,72.14
2023-11-24T04:26:54.022Z,72.31
2023-11-24T04:29:24.763Z,72.42
2023-11-24T04:31:55.695Z,72.40
2023-11-24T04:34:25.144Z,72.26
2023-11-24T04:36:55.068Z,72.47
2023-11-24T04:39:22.109Z,72.34
2023-11-24T04:41:51.005Z,72.36
2023-11-24T04:44:17.608Z,72.59
2023-11-24T04:46:46.860Z,72.57
2023-11-24T04:49:15.706Z,72.38
2023-11-24T04:51:44.709Z,72.18
2023-11-24T04:54:16.095Z,72.39
2023-11-24T04:56:42.665Z,72.24
2023-11-24T04:59:11.583Z,72.55
2023-11-24T05:01:40.960Z,72.28
2023-11-24T05:04:10.947Z,72.42
2023-11-24T05:06:37.629Z,72.29
2023-11-24T05:09:06.607Z,72.35
2023-11-24T05:11:33.231Z,72.24
2023-11-24T05:13:59.822Z,72.36
2023-11-24T05:16:27.995Z,72.44
2023-11-24T05:18:54.985Z,72.48
2023-11-24T05:21:21.630Z,72.21
2023-11-24T05:23:48.340Z,72.35
2023-11-24T05:26:15.060Z,72.10
2023-11-24T05:28:41.717Z,72.13
2023-11-24T05:31:08.665Z,72.36
2023-11-24T05:33:37.912Z,72.09
2023-11-24T05:36:10.907Z,72.29
2023-11-24T05:38:40.745Z,72.34
2023-11-24T05:41:10.611Z,72.28
2023-11-24T05:43:41.972Z,72.40
2023-11-24T05:46:08.712Z,72.31
2023-11-24T05:48:35.468Z,72.21
2023-11-24T05:51:02.395Z,71.94
2023-11-24T05:53:28.981Z,72.21
2023-11-24T05:55:55.738Z,72.08
2023-11-24T05:58:24.572Z,72.27
2023-11-24T06:00:51.300Z,72.26
2023-11-24T06:03:22.722Z,72.29
2023-11-24T06:05:49.403Z,72.34
2023-11-24T06:08:16.055Z,72.35
2023-11-24T06:10:42.733Z,72.42
2023-11-24T06:13:09.492Z,72.13
2023-11-24T06:15:38.504Z,72.13
2023-11-24T06:18:05.617Z,72.04
2023-11-24T06:20:34.363Z,72.33
2023-11-24T06:23:05.023Z,72.27
2023-11-24T06:25:31.779Z,72.11
2023-11-24T06:27:58.448Z,72.24
2023-11-24T06:30:25.099Z,72.18
2023-11-24T06:32:53.088Z,72.13
2023-11-24T06:35:19.805Z,72.30
2023-11-24T06:37:46.420Z,72.53
2023-11-24T06:40:15.653Z,72.40
2023-11-24T06:42:42.814Z,72.42
2023-11-24T06:45:16.113Z,72.28
2023-11-24T06:47:43.049Z,72.27
2023-11-24T06:50:14.088Z,72.44
2023-11-24T06:52:42.422Z,72.33
2023-11-24T06:55:10.195Z,72.33
2023-11-24T06:57:39.787Z,72.44
2023-11-24T07:00:07.423Z,72.06
2023-11-24T07:02:37.003Z,72.34
2023-11-24T07:05:06.828Z,72.39
2023-11-24T07:07:35.735Z,72.26
2023-11-24T07:10:02.469Z,72.14
2023-11-24T07:12:29.166Z,72.19
2023-11-24T07:15:00.370Z,72.23
2023-11-24T07:17:26.976Z,72.50
2023-11-24T07:19:55.769Z,72.26
2023-11-24T07:22:24.231Z,71.94
2023-11-24T07:24:50.935Z,72.48
2023-11-24T07:27:20.083Z,72.04
2023-11-24T07:29:46.881Z,72.32
2023-11-24T07:32:15.972Z,71.98
2023-11-24T07:34:45.264Z,72.34
2023-11-24T07:37:12.063Z,72.36
2023-11-24T07:39:38.852Z,72.14
2023-11-24T07:42:05.630Z,72.07
2023-11-24T07:44:34.688Z,72.44
2023-11-24T07:47:01.399Z,72.18
2023-11-24T07:49:28.306Z,69.80
2023-11-24T07:51:55.106Z,67.92
2023-11-24T07:54:21.740Z,67.76
2023-11-24T07:56:48.384Z,66.68
2023-11-24T07:59:17.362Z,66.35
2023-11-24T08:01:44.218Z,66.66
2023-11-24T08:04:13.683Z,66.33
2023-11-24T08:06:45.532Z,66.35
2023-11-24T08:09:14.619Z,65.88
2023-11-24T08:11:41.259Z,66.18
2023-11-24T08:14:07.977Z,65.93
2023-11-24T08:16:37.115Z,66.30
2023-11-24T08:19:06.040Z,65.89
2023-11-24T08:21:32.854Z,66.03
2023-11-24T08:23:59.509Z,65.73
2023-11-24T08:26:26.135Z,65.68
2023-11-24T08:28:52.892Z,65.73
2023-11-24T08:31:21.039Z,66.27
2023-11-24T08:33:50.287Z,66.45
2023-11-24T08:36:17.183Z,66.75
2023-11-24T08:38:43.865Z,66.41
2023-11-24T08:41:26.037Z,66.44
2023-11-24T08:43:57.828Z,66.65
2023-11-24T08:46:27.666Z,66.69
2023-11-24T08:48:55.809Z,66.94
2023-11-24T08:51:25.043Z,66.67
2023-11-24T08:53:51.660Z,66.95
2023-11-24T08:56:18.290Z,66.65
2023-11-24T08:58:44.903Z,66.71
2023-11-24T09:01:15.076Z,66.47
2023-11-24T09:03:44.641Z,66.65
2023-11-24T09:06:11.414Z,66.46
2023-11-24T09:08:38.027Z,66.71
2023-11-24T09:11:05.403Z,66.06
2023-11-24T09:13:35.568Z,66.16
2023-11-24T09:16:08.807Z,66.02
2023-11-24T09:18:35.543Z,66.07
2023-11-24T09:21:06.420Z,66.16
2023-11-24T09:23:36.300Z,66.27
2023-11-24T09:26:11.145Z,66.42
2023-11-24T09:28:40.126Z,66.04
2023-11-24T09:31:10.276Z,66.28
2023-11-24T09:33:41.413Z,65.89
2023-11-24T09:36:08.582Z,66.22
2023-11-24T09:38:37.770Z,66.00
2023-11-24T09:41:12.792Z,65.97
2023-11-24T09:43:40.150Z,65.91
2023-11-24T09:46:09.510Z,65.99
2023-11-24T09:48:36.807Z,65.68
2023-11-24T09:51:07.276Z,65.35
2023-11-24T09:53:34.961Z,65.75
2023-11-24T09:56:05.584Z,65.54
2023-11-24T09:58:35.656Z,65.62
2023-11-24T10:01:10.888Z,65.03
2023-11-24T10:03:41.082Z,65.47
2023-11-24T10:06:10.206Z,65.55
2023-11-24T10:08:38.164Z,65.62
2023-11-24T10:11:15.479Z,65.36
2023-11-24T10:13:43.057Z,65.05
2023-11-24T10:16:12.679Z,65.07
2023-11-24T10:18:42.628Z,65.14
2023-11-24T10:21:23.341Z,65.10
2023-11-24T10:23:57.512Z,65.31
2023-11-24T10:26:26.728Z,65.08
2023-11-24T10:28:53.844Z,65.17
2023-11-24T10:31:22.940Z,64.91
2023-11-24T10:33:50.521Z,65.12
2023-11-24T10:36:19.385Z,64.63
2023-11-24T10:38:47.995Z,64.62
2023-11-24T10:41:24.587Z,64.69
2023-11-24T10:43:52.681Z,64.39
2023-11-24T10:46:28.831Z,64.67
2023-11-24T10:49:14.377Z,64.20
2023-11-24T10:51:51.924Z,64.22
2023-11-24T10:54:39.902Z,64.01
2023-11-24T10:57:07.599Z,63.80
2023-11-24T10:59:39.326Z,64.04
2023-11-24T11:02:12.020Z,63.92
2023-11-24T11:04:53.788Z,64.35
2023-11-24T11:07:37.723Z,63.82
2023-11-24T11:10:14.692Z,63.76
2023-11-24T11:12:52.694Z,63.59
2023-11-24T11:15:25.141Z,63.71
2023-11-24T11:18:12.033Z,63.75
2023-11-24T11:20:42.011Z,63.69
2023-11-24T11:23:15.626Z,63.99
2023-11-24T11:25:44.571Z,64.08
2023-11-24T11:28:25.030Z,63.93
2023-11-24T11:30:58.851Z,63.77
2023-11-24T11:33:25.866Z,64.19
2023-11-24T11:36:11.338Z,64.14
2023-11-24T11:38:45.130Z,64.34
2023-11-24T11:41:42.915Z,64.40
2023-11-24T11:44:18.903Z,64.14
2023-11-24T11:47:06.564Z,63.87
2023-11-24T11:49:36.211Z,63.83
2023-11-24T11:52:10.052Z,64.34
2023-11-24T11:54:37.014Z,64.44
2023-11-24T11:57:05.878Z,64.65
2023-11-24T11:59:34.709Z,64.81
2023-11-24T12:02:01.509Z,64.85
2023-11-24T12:04:29.626Z,65.18
2023-11-24T12:07:01.291Z,64.93
2023-11-24T12:09:28.092Z,65.24
2023-11-24T12:11:59.700Z,65.16
2023-11-24T12:14:26.484Z,65.28
2023-11-24T12:16:57.899Z,64.86
2023-11-24T12:19:30.549Z,65.18
2023-11-24T12:22:03.808Z,64.83
2023-11-24T12:24:31.948Z,64.48
2023-11-24T12:27:03.699Z,64.34
2023-11-24T12:29:30.346Z,64.09
2023-11-24T12:31:59.647Z,64.36
2023-11-24T12:34:29.387Z,64.44
2023-11-24T12:36:56.822Z,64.07
2023-11-24T12:39:32.567Z,64.31
2023-11-24T12:41:59.781Z,64.01
2023-11-24T12:44:35.444Z,63.63
2023-11-24T12:50:12.110Z,63.32
2023-11-24T12:52:43.847Z,62.73
2023-11-24T12:55:11.830Z,62.95
2023-11-24T12:57:43.451Z,62.66
2023-11-24T13:00:15.548Z,62.10
2023-11-24T13:02:43.298Z,62.04
2023-11-24T13:05:11.577Z,61.62
2023-11-24T13:07:39.398Z,61.01
2023-11-24T13:10:12.694Z,60.93
2023-11-24T13:12:40.806Z,60.22
2023-11-24T13:15:14.209Z,60.14
2023-11-24T13:17:41.091Z,59.88
2023-11-24T13:20:14.855Z,59.31
2023-11-24T13:22:43.441Z,58.97
2023-11-24T13:25:11.323Z,58.76
2023-11-24T13:27:38.773Z,58.75
2023-11-24T13:30:11.066Z,58.36
2023-11-24T13:32:47.485Z,58.29
2023-11-24T13:35:17.148Z,58.30
2023-11-24T13:37:46.107Z,57.70
2023-11-24T13:40:20.536Z,58.22
2023-11-24T13:42:50.623Z,57.78
2023-11-24T13:45:21.844Z,57.59
2023-11-24T13:47:54.728Z,57.80
2023-11-24T13:50:25.121Z,57.29
2023-11-24T13:52:58.123Z,57.45
2023-11-24T13:55:25.764Z,56.79
2023-11-24T13:57:55.717Z,56.77
2023-11-24T14:00:23.140Z,56.90
2023-11-24T14:02:52.096Z,56.25
2023-11-24T14:05:20.016Z,56.13
2023-11-24T14:07:48.875Z,55.92
2023-11-24T14:10:20.194Z,55.60
2023-11-24T14:12:49.254Z,55.32
2023-11-24T14:15:16.502Z,54.93
2023-11-24T14:17:43.253Z,54.80
2023-11-24T14:20:11.633Z,55.06
2023-11-24T14:22:38.917Z,55.02
2023-11-24T14:25:07.921Z,54.53
2023-11-24T14:27:35.361Z,54.16
2023-11-24T14:30:04.186Z,53.90
2023-11-24T14:32:30.845Z,53.83
2023-11-24T14:34:57.545Z,53.91
2023-11-24T14:37:26.435Z,53.89
2023-11-24T14:39:55.589Z,53.52
2023-11-24T14:42:22.319Z,53.39
2023-11-24T14:44:51.069Z,53.29
2023-11-24T14:47:17.743Z,53.21
2023-11-24T14:49:47.448Z,52.77
2023-11-24T14:52:14.174Z,52.60
2023-11-24T14:54:40.814Z,52.56
2023-11-24T14:57:07.563Z,52.61
2023-11-24T14:59:34.269Z,52.73
2023-11-24T15:02:05.998Z,52.87
2023-11-24T15:04:35.379Z,52.73
2023-11-24T15:07:02.549Z,52.27
2023-11-24T15:09:29.380Z,52.33
2023-11-24T15:11:56.048Z,52.32
2023-11-24T15:14:37.618Z,52.15
2023-11-24T15:17:07.276Z,52.51
2023-11-24T15:19:37.689Z,52.10
2023-11-24T15:22:07.807Z,52.14
2023-11-24T15:24:35.120Z,52.08
2023-11-24T15:27:08.972Z,53.37
2023-11-24T15:29:38.610Z,53.43
2023-11-24T15:32:08.780Z,53.09
2023-11-24T15:34:37.848Z,53.88
2023-11-24T15:37:05.169Z,54.01
2023-11-24T15:39:52.161Z,54.06
2023-11-24T15:42:21.559Z,54.57
2023-11-24T15:44:49.460Z,54.78
2023-11-24T15:47:16.825Z,55.23
2023-11-24T15:49:45.947Z,55.07
2023-11-24T15:52:15.774Z,55.60
2023-11-24T15:54:46.084Z,56.00
2023-11-24T15:57:13.266Z,56.02
2023-11-24T15:59:43.780Z,56.34
2023-11-24T16:02:13.730Z,56.31
2023-11-24T16:04:44.070Z,56.24
2023-11-24T16:07:11.686Z,56.77
2023-11-24T16:09:38.947Z,56.90
2023-11-24T16:12:14.447Z,56.98
2023-11-24T16:14:41.679Z,56.88
2023-11-24T16:17:09.788Z,57.12
2023-11-24T16:19:37.099Z,57.25
2023-11-24T16:22:04.427Z,57.23
2023-11-24T16:24:31.222Z,56.98
2023-11-24T16:26:57.960Z,57.09
2023-11-24T16:29:25.404Z,57.50
2023-11-24T16:31:52.271Z,57.99
2023-11-24T16:34:26.790Z,57.58
2023-11-24T16:36:57.160Z,58.07
2023-11-24T16:39:24.502Z,58.16
2023-11-24T16:41:51.518Z,58.16
2023-11-24T16:44:20.725Z,58.11
2023-11-24T16:46:59.658Z,58.04
2023-11-24T16:49:31.014Z,57.97
2023-11-24T16:51:58.438Z,58.19
2023-11-24T16:54:25.124Z,58.60
2023-11-24T16:56:56.558Z,58.74
2023-11-24T16:59:25.401Z,58.95
2023-11-24T17:01:52.909Z,58.72
2023-11-24T17:04:19.822Z,59.22
2023-11-24T17:06:48.778Z,59.10
2023-11-24T17:09:19.882Z,58.71
2023-11-24T17:11:52.435Z,59.13
2023-11-24T17:14:19.448Z,59.29
2023-11-24T17:16:46.746Z,59.35
2023-11-24T17:19:19.329Z,59.56
2023-11-24T17:21:49.263Z,59.61
2023-11-24T17:24:16.667Z,59.79
2023-11-24T17:26:43.378Z,60.04
2023-11-24T17:29:14.976Z,59.67
2023-11-24T17:31:45.558Z,60.05
2023-11-24T17:34:13.872Z,60.06
2023-11-24T17:36:40.853Z,59.51
2023-11-24T17:39:10.092Z,60.03
2023-11-24T17:41:37.302Z,59.71
2023-11-24T17:44:05.636Z,60.56
2023-11-24T17:46:32.336Z,60.10
2023-11-24T17:48:59.134Z,60.72
2023-11-24T17:51:26.650Z,60.03
2023-11-24T17:53:54.640Z,59.95
2023-11-24T17:56:21.434Z,60.04
2023-11-24T17:58:48.496Z,60.13
2023-11-24T18:01:17.947Z,60.71
2023-11-24T18:03:50.734Z,60.78
2023-11-24T18:06:17.456Z,60.65
2023-11-24T18:08:49.667Z,60.82
2023-11-24T18:11:16.399Z,61.13
2023-11-24T18:13:43.619Z,61.11
2023-11-24T18:16:11.938Z,60.37
2023-11-24T18:18:41.541Z,60.54
2023-11-24T18:21:10.854Z,61.19
2023-11-24T18:23:37.593Z,60.43
2023-11-24T18:26:04.306Z,60.75
2023-11-24T18:28:31.020Z,61.01
2023-11-24T18:30:58.820Z,60.80
2023-11-24T18:33:27.780Z,60.38
2023-11-24T18:35:54.383Z,61.28
2023-11-24T18:38:21.044Z,61.10
2023-11-24T18:40:47.703Z,60.72
2023-11-24T18:43:23.088Z,61.10
2023-11-24T18:45:57.832Z,61.12
2023-11-24T18:48:26.786Z,61.13
2023-11-24T18:50:53.483Z,60.65
2023-11-24T18:53:22.751Z,61.42
2023-11-24T18:55:49.398Z,61.12
2023-11-24T18:58:16.044Z,61.38
2023-11-24T19:00:42.676Z,60.70
2023-11-24T19:03:11.655Z,60.76
2023-11-24T19:05:41.618Z,61.37
2023-11-24T19:08:08.271Z,60.57
2023-11-24T19:10:34.927Z,61.12
2023-11-24T19:13:03.881Z,63.07
2023-11-24T19:15:32.802Z,68.79
2023-11-24T19:18:02.302Z,69.86
2023-11-24T19:20:28.939Z,69.91
2023-11-24T19:22:58.967Z,70.30
2023-11-24T19:25:27.848Z,70.54
2023-11-24T19:27:56.755Z,70.62
2023-11-24T19:30:25.646Z,70.38
2023-11-24T19:32:52.856Z,70.56
2023-11-24T19:35:22.446Z,70.58
2023-11-24T19:37:49.098Z,70.85
2023-11-24T19:40:15.765Z,70.77
2023-11-24T19:42:42.439Z,70.25
2023-11-24T19:45:11.984Z,70.36
2023-11-24T19:47:38.717Z,69.72
2023-11-24T19:50:06.841Z,69.84
2023-11-24T19:52:36.064Z,69.00
2023-11-24T19:55:03.509Z,68.61
2023-11-24T19:57:31.107Z,67.29
2023-11-24T19:59:57.845Z,66.42
2023-11-24T20:02:29.301Z,65.50
2023-11-24T20:04:58.354Z,64.35
2023-11-24T20:07:25.336Z,63.70
2023-11-24T20:09:54.332Z,63.39
2023-11-24T20:12:23.535Z,62.84
2023-11-24T20:14:50.200Z,62.78
2023-11-24T20:17:20.179Z,62.66
2023-11-24T20:19:46.846Z,62.24
2023-11-24T20:22:13.505Z,62.53
2023-11-24T20:24:43.817Z,62.11
2023-11-24T20:27:10.452Z,61.99
2023-11-24T20:29:42.394Z,62.12
2023-11-24T20:32:10.299Z,62.00
2023-11-24T20:34:37.014Z,61.81
2023-11-24T20:37:06.296Z,61.74
2023-11-24T20:39:32.964Z,62.47
2023-11-24T20:42:00.436Z,61.94
2023-11-24T20:44:29.539Z,62.10
2023-11-24T20:47:00.433Z,62.30
2023-11-24T20:49:29.188Z,62.13
2023-11-24T20:51:59.063Z,62.29
2023-11-24T20:54:25.774Z,61.76
2023-11-24T20:56:54.934Z,62.00
2023-11-24T20:59:24.598Z,61.87
2023-11-24T21:01:51.300Z,62.35
2023-11-24T21:04:21.606Z,62.38
2023-11-24T21:06:48.284Z,62.82
2023-11-24T21:09:17.144Z,62.61
2023-11-24T21:11:43.741Z,62.31
2023-11-24T21:14:10.519Z,62.51
2023-11-24T21:16:39.445Z,62.24
2023-11-24T21:19:08.666Z,62.83
2023-11-24T21:21:35.348Z,62.28
2023-11-24T21:24:04.369Z,62.27
2023-11-24T21:26:31.030Z,62.79
2023-11-24T21:28:57.669Z,63.00
2023-11-24T21:31:24.476Z,62.40
2023-11-24T21:33:51.832Z,63.10
2023-11-24T21:36:21.101Z,62.67
2023-11-24T21:38:47.753Z,62.63
2023-11-24T21:41:21.177Z,62.60
2023-11-24T21:43:49.163Z,62.32
2023-11-24T21:46:22.551Z,62.67
2023-11-24T21:48:49.595Z,62.99
2023-11-24T21:51:17.999Z,62.99
2023-11-24T21:53:47.074Z,63.02
2023-11-24T21:56:13.762Z,63.09
2023-11-24T21:58:40.867Z,63.26
2023-11-24T22:01:09.668Z,63.01
2023-11-24T22:03:36.445Z,62.56
2023-11-24T22:06:03.190Z,63.22
2023-11-24T22:08:29.857Z,62.63
2023-11-24T22:10:56.522Z,63.12
2023-11-24T22:13:25.528Z,63.18
2023-11-24T22:15:52.159Z,62.73
2023-11-24T22:18:18.888Z,62.84
2023-11-24T22:20:45.541Z,63.33
2023-11-24T22:23:12.241Z,62.91
2023-11-24T22:25:41.414Z,60.04
2023-11-24T22:28:09.512Z,60.20
2023-11-24T22:30:39.253Z,60.48
2023-11-24T22:33:05.935Z,60.93
2023-11-24T22:35:33.217Z,61.07
2023-11-24T22:38:03.070Z,61.12
2023-11-24T22:40:31.982Z,61.68
2023-11-24T22:42:59.212Z,62.77
2023-11-24T22:45:25.927Z,66.23
2023-11-24T22:47:52.598Z,65.47
2023-11-24T22:50:22.261Z,65.39
2023-11-24T22:52:49.277Z,65.59
2023-11-24T22:55:16.004Z,65.89
2023-11-24T22:57:45.348Z,65.53
2023-11-24T23:00:30.698Z,65.94
2023-11-24T23:02:59.901Z,65.22
2023-11-24T23:05:28.962Z,65.50
2023-11-24T23:07:55.960Z,65.15
2023-11-24T23:10:22.731Z,65.82
2023-11-24T23:12:52.239Z,65.18
2023-11-24T23:15:18.902Z,65.60
2023-11-24T23:17:45.949Z,64.89
2023-11-24T23:20:12.654Z,64.77
2023-11-24T23:22:39.299Z,64.94
2023-11-24T23:25:11.770Z,65.44
2023-11-24T23:27:42.415Z,64.92
2023-11-24T23:30:15.361Z,65.35
2023-11-24T23:32:44.735Z,64.74
2023-11-24T23:35:12.979Z,65.25
2023-11-24T23:37:43.980Z,65.32
2023-11-24T23:40:15.270Z,64.98
2023-11-24T23:42:46.140Z,65.10
2023-11-24T23:45:13.395Z,64.80
2023-11-24T23:47:42.519Z,65.05
2023-11-24T23:50:12.193Z,65.13
2023-11-24T23:52:38.939Z,65.25
2023-11-24T23:55:06.269Z,64.98
2023-11-24T23:57:38.046Z,64.94
